sensor_id;sensor_type;location;lat;lon;timestamp;temperature;humidity
20182;DHT22;10250;50.756;6.172;2023-06-26T00:01:23;22.30;1.00
20182;DHT22;10250;50.756;6.172;2023-06-26T00:03:23;22.30;1.00
20182;DHT22;10250;50.756;6.172;2023-06-26T00:05:24;22.30;1.00
20182;DHT22;10250;50.756;6.172;2023-06-26T00:07:24;22.30;1.00
20182;DHT22;10250;50.756;6.172;2023-06-26T00:09:25;22.30;1.00
20182;DHT22;10250;50.756;6.172;2023-06-26T00:11:25;22.30;1.00
20182;DHT22;10250;50.756;6.172;2023-06-26T00:13:27;22.30;1.00
20182;DHT22;10250;50.756;6.172;2023-06-26T00:15:28;22.30;1.00
20182;DHT22;10250;50.756;6.172;2023-06-26T00:17:31;22.30;1.00
20182;DHT22;10250;50.756;6.172;2023-06-26T00:19:37;22.30;1.00
20182;DHT22;10250;50.756;6.172;2023-06-26T00:21:37;22.40;1.00
20182;DHT22;10250;50.756;6.172;2023-06-26T00:23:38;22.40;1.00
20182;DHT22;10250;50.756;6.172;2023-06-26T00:25:38;22.40;1.00
20182;DHT22;10250;50.756;6.172;2023-06-26T00:27:39;22.40;1.00
20182;DHT22;10250;50.756;6.172;2023-06-26T00:29:39;22.40;1.00
20182;DHT22;10250;50.756;6.172;2023-06-26T00:31:41;22.40;1.00
20182;DHT22;10250;50.756;6.172;2023-06-26T00:33:42;22.40;1.00
20182;DHT22;10250;50.756;6.172;2023-06-26T00:35:42;22.40;1.00
20182;DHT22;10250;50.756;6.172;2023-06-26T00:37:43;22.40;1.00
20182;DHT22;10250;50.756;6.172;2023-06-26T00:39:43;22.30;1.00
20182;DHT22;10250;50.756;6.172;2023-06-26T00:41:44;22.40;1.00
20182;DHT22;10250;50.756;6.172;2023-06-26T00:43:44;22.40;1.00
20182;DHT22;10250;50.756;6.172;2023-06-26T00:45:50;22.40;1.00
20182;DHT22;10250;50.756;6.172;2023-06-26T00:47:54;22.40;1.00
20182;DHT22;10250;50.756;6.172;2023-06-26T00:49:55;22.40;1.00
20182;DHT22;10250;50.756;6.172;2023-06-26T00:51:56;22.40;1.00
20182;DHT22;10250;50.756;6.172;2023-06-26T00:53:57;22.40;1.00
20182;DHT22;10250;50.756;6.172;2023-06-26T00:55:59;22.40;1.00
20182;DHT22;10250;50.756;6.172;2023-06-26T00:57:59;22.40;1.00
20182;DHT22;10250;50.756;6.172;2023-06-26T01:00:10;22.40;1.00
20182;DHT22;10250;50.756;6.172;2023-06-26T01:02:11;22.40;1.00
20182;DHT22;10250;50.756;6.172;2023-06-26T01:04:13;22.40;1.00
20182;DHT22;10250;50.756;6.172;2023-06-26T01:06:19;22.40;1.00
20182;DHT22;10250;50.756;6.172;2023-06-26T01:08:24;22.40;1.00
20182;DHT22;10250;50.756;6.172;2023-06-26T01:10:24;22.30;1.00
20182;DHT22;10250;50.756;6.172;2023-06-26T01:12:28;22.30;1.00
20182;DHT22;10250;50.756;6.172;2023-06-26T01:14:28;22.30;1.00
20182;DHT22;10250;50.756;6.172;2023-06-26T01:16:29;22.30;1.00
20182;DHT22;10250;50.756;6.172;2023-06-26T01:18:31;22.20;1.00
20182;DHT22;10250;50.756;6.172;2023-06-26T01:20:36;22.30;1.00
20182;DHT22;10250;50.756;6.172;2023-06-26T01:23:07;22.30;1.00
20182;DHT22;10250;50.756;6.172;2023-06-26T01:27:21;22.30;1.00
20182;DHT22;10250;50.756;6.172;2023-06-26T01:29:23;22.30;1.00
20182;DHT22;10250;50.756;6.172;2023-06-26T01:31:26;22.40;1.00
20182;DHT22;10250;50.756;6.172;2023-06-26T01:33:28;22.40;1.00
20182;DHT22;10250;50.756;6.172;2023-06-26T01:35:28;22.40;1.00
20182;DHT22;10250;50.756;6.172;2023-06-26T01:37:29;22.40;1.00
20182;DHT22;10250;50.756;6.172;2023-06-26T01:39:30;22.40;1.00
20182;DHT22;10250;50.756;6.172;2023-06-26T01:41:34;22.40;1.00
20182;DHT22;10250;50.756;6.172;2023-06-26T01:43:44;22.30;1.00
20182;DHT22;10250;50.756;6.172;2023-06-26T01:45:51;22.30;1.00
20182;DHT22;10250;50.756;6.172;2023-06-26T01:47:52;22.30;1.00
20182;DHT22;10250;50.756;6.172;2023-06-26T01:50:05;22.30;1.00
20182;DHT22;10250;50.756;6.172;2023-06-26T01:54:23;22.20;1.00
20182;DHT22;10250;50.756;6.172;2023-06-26T01:56:28;22.10;1.00
20182;DHT22;10250;50.756;6.172;2023-06-26T01:58:29;22.10;1.00
20182;DHT22;10250;50.756;6.172;2023-06-26T02:00:31;22.10;1.00
20182;DHT22;10250;50.756;6.172;2023-06-26T02:02:32;22.00;1.00
20182;DHT22;10250;50.756;6.172;2023-06-26T02:04:33;22.00;1.00
20182;DHT22;10250;50.756;6.172;2023-06-26T02:06:33;22.00;1.00
20182;DHT22;10250;50.756;6.172;2023-06-26T02:08:34;22.00;1.00
20182;DHT22;10250;50.756;6.172;2023-06-26T02:10:34;21.90;1.00
20182;DHT22;10250;50.756;6.172;2023-06-26T02:12:36;21.90;1.00
20182;DHT22;10250;50.756;6.172;2023-06-26T02:14:37;21.80;1.00
20182;DHT22;10250;50.756;6.172;2023-06-26T02:16:38;21.80;1.00
20182;DHT22;10250;50.756;6.172;2023-06-26T02:18:39;21.80;1.00
20182;DHT22;10250;50.756;6.172;2023-06-26T02:20:39;21.70;1.00
20182;DHT22;10250;50.756;6.172;2023-06-26T02:22:40;21.70;1.00
20182;DHT22;10250;50.756;6.172;2023-06-26T02:24:41;21.70;1.00
20182;DHT22;10250;50.756;6.172;2023-06-26T02:26:42;21.60;1.00
20182;DHT22;10250;50.756;6.172;2023-06-26T02:28:42;21.50;1.00
20182;DHT22;10250;50.756;6.172;2023-06-26T02:30:43;21.50;12.40
20182;DHT22;10250;50.756;6.172;2023-06-26T02:32:43;21.50;26.60
20182;DHT22;10250;50.756;6.172;2023-06-26T02:34:44;21.40;46.30
20182;DHT22;10250;50.756;6.172;2023-06-26T02:36:44;21.40;86.70
20182;DHT22;10250;50.756;6.172;2023-06-26T02:38:45;21.30;99.90
20182;DHT22;10250;50.756;6.172;2023-06-26T02:40:45;21.30;99.90
20182;DHT22;10250;50.756;6.172;2023-06-26T02:42:46;21.30;99.90
20182;DHT22;10250;50.756;6.172;2023-06-26T02:44:47;21.30;99.90
20182;DHT22;10250;50.756;6.172;2023-06-26T02:46:47;21.20;99.90
20182;DHT22;10250;50.756;6.172;2023-06-26T02:48:48;21.20;99.90
20182;DHT22;10250;50.756;6.172;2023-06-26T02:50:48;21.20;99.90
20182;DHT22;10250;50.756;6.172;2023-06-26T02:52:49;21.10;99.90
20182;DHT22;10250;50.756;6.172;2023-06-26T02:54:52;21.10;99.90
20182;DHT22;10250;50.756;6.172;2023-06-26T02:56:53;21.10;99.90
20182;DHT22;10250;50.756;6.172;2023-06-26T02:58:54;21.00;99.90
20182;DHT22;10250;50.756;6.172;2023-06-26T03:00:54;20.90;99.90
20182;DHT22;10250;50.756;6.172;2023-06-26T03:02:56;20.90;1.00
20182;DHT22;10250;50.756;6.172;2023-06-26T03:04:57;20.80;1.00
20182;DHT22;10250;50.756;6.172;2023-06-26T03:06:58;20.80;1.00
20182;DHT22;10250;50.756;6.172;2023-06-26T03:08:58;20.80;1.00
20182;DHT22;10250;50.756;6.172;2023-06-26T03:10:59;20.80;1.00
20182;DHT22;10250;50.756;6.172;2023-06-26T03:12:59;20.70;1.00
20182;DHT22;10250;50.756;6.172;2023-06-26T03:15:00;20.70;1.00
20182;DHT22;10250;50.756;6.172;2023-06-26T03:17:00;20.60;1.00
20182;DHT22;10250;50.756;6.172;2023-06-26T03:19:04;20.60;1.00
20182;DHT22;10250;50.756;6.172;2023-06-26T03:21:04;20.60;1.00
20182;DHT22;10250;50.756;6.172;2023-06-26T03:23:05;20.50;1.00
20182;DHT22;10250;50.756;6.172;2023-06-26T03:25:06;20.40;1.00
20182;DHT22;10250;50.756;6.172;2023-06-26T03:27:07;20.40;1.00
20182;DHT22;10250;50.756;6.172;2023-06-26T03:29:09;20.40;1.00
20182;DHT22;10250;50.756;6.172;2023-06-26T03:31:10;20.30;1.00
20182;DHT22;10250;50.756;6.172;2023-06-26T03:33:11;20.40;1.00
20182;DHT22;10250;50.756;6.172;2023-06-26T03:35:11;20.40;1.00
20182;DHT22;10250;50.756;6.172;2023-06-26T03:37:12;20.30;1.00
20182;DHT22;10250;50.756;6.172;2023-06-26T03:39:13;20.20;1.00
20182;DHT22;10250;50.756;6.172;2023-06-26T03:41:14;20.20;5.10
20182;DHT22;10250;50.756;6.172;2023-06-26T03:43:15;20.20;99.90
20182;DHT22;10250;50.756;6.172;2023-06-26T03:45:15;20.20;99.90
20182;DHT22;10250;50.756;6.172;2023-06-26T03:47:16;20.20;99.90
20182;DHT22;10250;50.756;6.172;2023-06-26T03:49:17;20.10;99.90
20182;DHT22;10250;50.756;6.172;2023-06-26T03:51:18;20.10;99.90
20182;DHT22;10250;50.756;6.172;2023-06-26T03:53:18;20.10;99.90
20182;DHT22;10250;50.756;6.172;2023-06-26T03:55:19;20.00;99.90
20182;DHT22;10250;50.756;6.172;2023-06-26T03:57:21;20.00;99.90
20182;DHT22;10250;50.756;6.172;2023-06-26T03:59:21;20.00;99.90
20182;DHT22;10250;50.756;6.172;2023-06-26T04:01:22;20.00;19.30
20182;DHT22;10250;50.756;6.172;2023-06-26T04:03:23;20.00;79.20
20182;DHT22;10250;50.756;6.172;2023-06-26T04:05:23;20.00;96.10
20182;DHT22;10250;50.756;6.172;2023-06-26T04:07:24;20.00;25.00
20182;DHT22;10250;50.756;6.172;2023-06-26T04:09:25;20.00;39.80
20182;DHT22;10250;50.756;6.172;2023-06-26T04:11:26;20.00;1.00
20182;DHT22;10250;50.756;6.172;2023-06-26T04:13:27;20.00;37.10
20182;DHT22;10250;50.756;6.172;2023-06-26T04:15:27;20.00;1.00
20182;DHT22;10250;50.756;6.172;2023-06-26T04:17:28;20.00;1.00
20182;DHT22;10250;50.756;6.172;2023-06-26T04:19:29;20.00;1.00
20182;DHT22;10250;50.756;6.172;2023-06-26T04:21:30;20.00;1.00
20182;DHT22;10250;50.756;6.172;2023-06-26T04:23:31;20.00;1.00
20182;DHT22;10250;50.756;6.172;2023-06-26T04:25:31;19.90;1.00
20182;DHT22;10250;50.756;6.172;2023-06-26T04:27:32;19.90;1.00
20182;DHT22;10250;50.756;6.172;2023-06-26T04:29:32;19.90;1.00
20182;DHT22;10250;50.756;6.172;2023-06-26T04:31:33;19.90;1.00
20182;DHT22;10250;50.756;6.172;2023-06-26T04:33:35;19.90;27.80
20182;DHT22;10250;50.756;6.172;2023-06-26T04:35:38;19.80;27.10
20182;DHT22;10250;50.756;6.172;2023-06-26T04:37:39;19.80;31.80
20182;DHT22;10250;50.756;6.172;2023-06-26T04:39:40;19.80;50.50
20182;DHT22;10250;50.756;6.172;2023-06-26T04:41:40;19.90;1.00
20182;DHT22;10250;50.756;6.172;2023-06-26T04:43:41;19.80;1.00
20182;DHT22;10250;50.756;6.172;2023-06-26T04:45:42;19.90;1.00
20182;DHT22;10250;50.756;6.172;2023-06-26T04:47:43;19.90;1.00
20182;DHT22;10250;50.756;6.172;2023-06-26T04:49:43;19.90;1.00
20182;DHT22;10250;50.756;6.172;2023-06-26T04:51:46;19.90;1.00
20182;DHT22;10250;50.756;6.172;2023-06-26T04:53:46;19.90;7.40
20182;DHT22;10250;50.756;6.172;2023-06-26T04:55:47;19.90;99.90
20182;DHT22;10250;50.756;6.172;2023-06-26T04:57:47;19.90;1.00
20182;DHT22;10250;50.756;6.172;2023-06-26T04:59:48;20.00;42.70
20182;DHT22;10250;50.756;6.172;2023-06-26T05:01:48;20.10;1.00
20182;DHT22;10250;50.756;6.172;2023-06-26T05:03:49;20.00;1.00
20182;DHT22;10250;50.756;6.172;2023-06-26T05:05:49;19.90;21.30
20182;DHT22;10250;50.756;6.172;2023-06-26T05:07:53;19.90;37.30
20182;DHT22;10250;50.756;6.172;2023-06-26T05:09:54;19.90;47.30
20182;DHT22;10250;50.756;6.172;2023-06-26T05:11:54;19.90;84.20
20182;DHT22;10250;50.756;6.172;2023-06-26T05:13:55;19.90;99.90
20182;DHT22;10250;50.756;6.172;2023-06-26T05:15:55;19.90;99.90
20182;DHT22;10250;50.756;6.172;2023-06-26T05:17:56;20.00;99.90
20182;DHT22;10250;50.756;6.172;2023-06-26T05:19:56;19.90;99.90
20182;DHT22;10250;50.756;6.172;2023-06-26T05:21:57;19.90;99.90
20182;DHT22;10250;50.756;6.172;2023-06-26T05:24:00;19.90;1.00
20182;DHT22;10250;50.756;6.172;2023-06-26T05:26:03;19.90;1.00
20182;DHT22;10250;50.756;6.172;2023-06-26T05:28:04;19.90;1.00
20182;DHT22;10250;50.756;6.172;2023-06-26T05:30:10;19.90;1.00
20182;DHT22;10250;50.756;6.172;2023-06-26T05:32:15;20.00;94.60
20182;DHT22;10250;50.756;6.172;2023-06-26T05:34:24;19.80;99.90
20182;DHT22;10250;50.756;6.172;2023-06-26T05:36:29;19.90;99.90
20182;DHT22;10250;50.756;6.172;2023-06-26T05:38:31;19.90;1.00
20182;DHT22;10250;50.756;6.172;2023-06-26T05:40:32;19.80;1.00
20182;DHT22;10250;50.756;6.172;2023-06-26T05:42:35;19.90;1.00
20182;DHT22;10250;50.756;6.172;2023-06-26T05:44:35;20.00;99.90
20182;DHT22;10250;50.756;6.172;2023-06-26T05:46:36;20.00;1.00
20182;DHT22;10250;50.756;6.172;2023-06-26T05:48:36;20.10;1.00
20182;DHT22;10250;50.756;6.172;2023-06-26T05:50:37;20.20;1.00
20182;DHT22;10250;50.756;6.172;2023-06-26T05:52:38;20.20;1.00
20182;DHT22;10250;50.756;6.172;2023-06-26T05:54:39;20.30;1.00
20182;DHT22;10250;50.756;6.172;2023-06-26T05:56:40;20.30;99.90
20182;DHT22;10250;50.756;6.172;2023-06-26T05:58:42;20.30;24.00
20182;DHT22;10250;50.756;6.172;2023-06-26T06:00:44;20.30;1.00
20182;DHT22;10250;50.756;6.172;2023-06-26T06:02:45;20.30;1.00
20182;DHT22;10250;50.756;6.172;2023-06-26T06:04:46;20.20;1.00
20182;DHT22;10250;50.756;6.172;2023-06-26T06:06:46;20.20;99.90
20182;DHT22;10250;50.756;6.172;2023-06-26T06:08:47;20.40;1.00
20182;DHT22;10250;50.756;6.172;2023-06-26T06:10:47;20.40;1.00
20182;DHT22;10250;50.756;6.172;2023-06-26T06:12:48;20.40;1.00
20182;DHT22;10250;50.756;6.172;2023-06-26T06:14:49;20.50;1.00
20182;DHT22;10250;50.756;6.172;2023-06-26T06:16:49;20.50;1.00
20182;DHT22;10250;50.756;6.172;2023-06-26T06:18:50;20.60;99.90
20182;DHT22;10250;50.756;6.172;2023-06-26T06:20:50;20.50;99.90
20182;DHT22;10250;50.756;6.172;2023-06-26T06:22:51;20.30;1.00
20182;DHT22;10250;50.756;6.172;2023-06-26T06:24:52;20.00;99.90
20182;DHT22;10250;50.756;6.172;2023-06-26T06:26:52;20.10;1.00
20182;DHT22;10250;50.756;6.172;2023-06-26T06:28:53;20.10;38.20
20182;DHT22;10250;50.756;6.172;2023-06-26T06:30:54;20.10;99.90
20182;DHT22;10250;50.756;6.172;2023-06-26T06:32:54;20.00;99.90
20182;DHT22;10250;50.756;6.172;2023-06-26T06:34:55;19.90;1.00
20182;DHT22;10250;50.756;6.172;2023-06-26T06:36:55;19.90;99.90
20182;DHT22;10250;50.756;6.172;2023-06-26T06:38:56;19.90;1.00
20182;DHT22;10250;50.756;6.172;2023-06-26T06:40:56;20.10;1.00
20182;DHT22;10250;50.756;6.172;2023-06-26T06:42:57;20.90;36.20
20182;DHT22;10250;50.756;6.172;2023-06-26T06:44:57;21.10;1.00
20182;DHT22;10250;50.756;6.172;2023-06-26T06:46:58;21.10;1.00
20182;DHT22;10250;50.756;6.172;2023-06-26T06:49:00;21.10;1.00
20182;DHT22;10250;50.756;6.172;2023-06-26T06:51:01;21.20;1.00
20182;DHT22;10250;50.756;6.172;2023-06-26T06:53:01;21.30;1.00
20182;DHT22;10250;50.756;6.172;2023-06-26T06:55:02;21.20;1.00
20182;DHT22;10250;50.756;6.172;2023-06-26T06:57:08;21.20;1.00
20182;DHT22;10250;50.756;6.172;2023-06-26T06:59:08;20.90;1.00
20182;DHT22;10250;50.756;6.172;2023-06-26T07:01:09;20.70;1.00
20182;DHT22;10250;50.756;6.172;2023-06-26T07:03:10;20.70;1.00
20182;DHT22;10250;50.756;6.172;2023-06-26T07:05:12;20.60;1.00
20182;DHT22;10250;50.756;6.172;2023-06-26T07:07:13;20.80;99.90
20182;DHT22;10250;50.756;6.172;2023-06-26T07:09:16;20.50;1.00
20182;DHT22;10250;50.756;6.172;2023-06-26T07:11:17;20.40;99.90
20182;DHT22;10250;50.756;6.172;2023-06-26T07:13:17;20.60;1.00
20182;DHT22;10250;50.756;6.172;2023-06-26T07:15:18;20.60;1.00
20182;DHT22;10250;50.756;6.172;2023-06-26T07:17:19;20.80;1.00
20182;DHT22;10250;50.756;6.172;2023-06-26T07:19:19;20.90;1.00
20182;DHT22;10250;50.756;6.172;2023-06-26T07:21:20;21.20;1.00
20182;DHT22;10250;50.756;6.172;2023-06-26T07:23:20;21.20;1.00
20182;DHT22;10250;50.756;6.172;2023-06-26T07:25:21;21.50;99.90
20182;DHT22;10250;50.756;6.172;2023-06-26T07:27:22;21.30;99.90
20182;DHT22;10250;50.756;6.172;2023-06-26T07:29:22;21.40;99.90
20182;DHT22;10250;50.756;6.172;2023-06-26T07:31:23;21.20;99.90
20182;DHT22;10250;50.756;6.172;2023-06-26T07:33:23;21.50;99.90
20182;DHT22;10250;50.756;6.172;2023-06-26T07:35:24;21.50;99.90
20182;DHT22;10250;50.756;6.172;2023-06-26T07:37:27;21.30;99.90
20182;DHT22;10250;50.756;6.172;2023-06-26T07:39:28;21.10;99.90
20182;DHT22;10250;50.756;6.172;2023-06-26T07:41:29;20.90;1.00
20182;DHT22;10250;50.756;6.172;2023-06-26T07:43:31;20.90;1.00
20182;DHT22;10250;50.756;6.172;2023-06-26T07:45:32;20.70;1.00
20182;DHT22;10250;50.756;6.172;2023-06-26T07:47:32;20.70;1.00
20182;DHT22;10250;50.756;6.172;2023-06-26T07:49:33;20.70;1.00
20182;DHT22;10250;50.756;6.172;2023-06-26T07:51:34;20.70;1.00
20182;DHT22;10250;50.756;6.172;2023-06-26T07:53:34;20.70;1.00
20182;DHT22;10250;50.756;6.172;2023-06-26T07:55:35;20.60;1.00
20182;DHT22;10250;50.756;6.172;2023-06-26T07:57:35;20.60;1.00
20182;DHT22;10250;50.756;6.172;2023-06-26T07:59:36;20.70;1.00
20182;DHT22;10250;50.756;6.172;2023-06-26T08:01:37;20.60;1.00
20182;DHT22;10250;50.756;6.172;2023-06-26T08:03:37;20.60;1.00
20182;DHT22;10250;50.756;6.172;2023-06-26T08:05:38;20.60;99.90
20182;DHT22;10250;50.756;6.172;2023-06-26T08:07:38;20.70;99.90
20182;DHT22;10250;50.756;6.172;2023-06-26T08:09:39;20.80;1.00
20182;DHT22;10250;50.756;6.172;2023-06-26T08:11:40;20.90;99.90
20182;DHT22;10250;50.756;6.172;2023-06-26T08:13:40;20.90;99.90
20182;DHT22;10250;50.756;6.172;2023-06-26T08:15:41;21.00;99.90
20182;DHT22;10250;50.756;6.172;2023-06-26T08:17:42;21.00;99.90
20182;DHT22;10250;50.756;6.172;2023-06-26T08:19:42;21.00;99.90
20182;DHT22;10250;50.756;6.172;2023-06-26T08:21:44;21.30;99.90
20182;DHT22;10250;50.756;6.172;2023-06-26T08:23:45;21.30;99.90
20182;DHT22;10250;50.756;6.172;2023-06-26T08:25:46;21.70;99.90
20182;DHT22;10250;50.756;6.172;2023-06-26T08:27:47;21.80;99.90
20182;DHT22;10250;50.756;6.172;2023-06-26T08:29:48;21.80;99.90
20182;DHT22;10250;50.756;6.172;2023-06-26T08:31:49;21.50;99.90
20182;DHT22;10250;50.756;6.172;2023-06-26T08:33:49;21.40;99.90
20182;DHT22;10250;50.756;6.172;2023-06-26T08:35:50;21.50;99.90
20182;DHT22;10250;50.756;6.172;2023-06-26T08:37:51;21.70;99.90
20182;DHT22;10250;50.756;6.172;2023-06-26T08:39:51;21.80;99.90
20182;DHT22;10250;50.756;6.172;2023-06-26T08:41:52;21.70;99.90
20182;DHT22;10250;50.756;6.172;2023-06-26T08:43:53;21.80;99.90
20182;DHT22;10250;50.756;6.172;2023-06-26T08:45:54;21.90;99.90
20182;DHT22;10250;50.756;6.172;2023-06-26T08:47:55;22.00;99.90
20182;DHT22;10250;50.756;6.172;2023-06-26T08:50:10;22.00;99.90
20182;DHT22;10250;50.756;6.172;2023-06-26T08:52:19;22.30;99.90
20182;DHT22;10250;50.756;6.172;2023-06-26T08:54:31;22.00;98.90
20182;DHT22;10250;50.756;6.172;2023-06-26T08:56:40;21.90;99.90
20182;DHT22;10250;50.756;6.172;2023-06-26T08:58:42;21.90;99.90
20182;DHT22;10250;50.756;6.172;2023-06-26T09:00:43;21.60;97.50
20182;DHT22;10250;50.756;6.172;2023-06-26T09:02:44;21.60;99.90
20182;DHT22;10250;50.756;6.172;2023-06-26T09:04:45;21.70;99.90
20182;DHT22;10250;50.756;6.172;2023-06-26T09:06:46;21.90;99.90
20182;DHT22;10250;50.756;6.172;2023-06-26T09:08:46;22.00;99.90
20182;DHT22;10250;50.756;6.172;2023-06-26T09:10:47;22.00;92.60
20182;DHT22;10250;50.756;6.172;2023-06-26T09:12:48;21.80;77.70
20182;DHT22;10250;50.756;6.172;2023-06-26T09:14:50;22.00;72.60
20182;DHT22;10250;50.756;6.172;2023-06-26T09:16:50;22.10;50.00
20182;DHT22;10250;50.756;6.172;2023-06-26T09:18:52;22.00;45.60
20182;DHT22;10250;50.756;6.172;2023-06-26T09:20:53;22.00;46.30
20182;DHT22;10250;50.756;6.172;2023-06-26T09:22:54;22.10;56.80
20182;DHT22;10250;50.756;6.172;2023-06-26T09:24:56;22.30;40.10
20182;DHT22;10250;50.756;6.172;2023-06-26T09:26:57;22.30;38.30
20182;DHT22;10250;50.756;6.172;2023-06-26T09:28:58;22.40;42.00
20182;DHT22;10250;50.756;6.172;2023-06-26T09:31:06;22.30;21.20
20182;DHT22;10250;50.756;6.172;2023-06-26T09:33:17;22.30;26.30
20182;DHT22;10250;50.756;6.172;2023-06-26T09:35:17;22.30;27.10
20182;DHT22;10250;50.756;6.172;2023-06-26T09:37:26;22.30;14.60
20182;DHT22;10250;50.756;6.172;2023-06-26T09:39:27;22.20;20.70
20182;DHT22;10250;50.756;6.172;2023-06-26T09:41:27;22.30;20.50
20182;DHT22;10250;50.756;6.172;2023-06-26T09:43:29;22.40;18.20
20182;DHT22;10250;50.756;6.172;2023-06-26T09:45:33;22.40;12.90
20182;DHT22;10250;50.756;6.172;2023-06-26T09:47:34;22.30;7.40
20182;DHT22;10250;50.756;6.172;2023-06-26T09:49:35;22.20;8.50
20182;DHT22;10250;50.756;6.172;2023-06-26T09:51:36;22.40;14.10
20182;DHT22;10250;50.756;6.172;2023-06-26T09:53:37;22.60;9.60
20182;DHT22;10250;50.756;6.172;2023-06-26T09:55:38;22.70;2.80
20182;DHT22;10250;50.756;6.172;2023-06-26T09:57:40;22.50;1.00
20182;DHT22;10250;50.756;6.172;2023-06-26T09:59:42;22.10;1.00
20182;DHT22;10250;50.756;6.172;2023-06-26T10:01:46;21.80;1.00
20182;DHT22;10250;50.756;6.172;2023-06-26T10:03:46;21.90;5.40
20182;DHT22;10250;50.756;6.172;2023-06-26T10:05:48;22.30;1.00
20182;DHT22;10250;50.756;6.172;2023-06-26T10:07:50;22.50;1.00
20182;DHT22;10250;50.756;6.172;2023-06-26T10:09:52;22.60;1.00
20182;DHT22;10250;50.756;6.172;2023-06-26T10:12:00;22.90;1.00
20182;DHT22;10250;50.756;6.172;2023-06-26T10:14:04;22.80;1.00
20182;DHT22;10250;50.756;6.172;2023-06-26T10:16:07;22.90;1.00
20182;DHT22;10250;50.756;6.172;2023-06-26T10:18:09;22.90;1.00
20182;DHT22;10250;50.756;6.172;2023-06-26T10:20:11;23.00;1.00
20182;DHT22;10250;50.756;6.172;2023-06-26T10:22:17;22.90;1.00
20182;DHT22;10250;50.756;6.172;2023-06-26T10:24:18;22.60;1.00
20182;DHT22;10250;50.756;6.172;2023-06-26T10:26:20;22.50;1.00
20182;DHT22;10250;50.756;6.172;2023-06-26T10:28:22;22.70;1.00
20182;DHT22;10250;50.756;6.172;2023-06-26T10:30:28;22.80;1.00
20182;DHT22;10250;50.756;6.172;2023-06-26T10:32:30;22.80;1.00
20182;DHT22;10250;50.756;6.172;2023-06-26T10:34:31;22.40;1.00
20182;DHT22;10250;50.756;6.172;2023-06-26T10:36:32;22.50;1.00
20182;DHT22;10250;50.756;6.172;2023-06-26T10:38:52;22.70;1.00
20182;DHT22;10250;50.756;6.172;2023-06-26T10:40:53;22.90;1.00
20182;DHT22;10250;50.756;6.172;2023-06-26T10:43:08;23.10;1.00
20182;DHT22;10250;50.756;6.172;2023-06-26T10:45:20;23.20;1.00
20182;DHT22;10250;50.756;6.172;2023-06-26T10:47:30;23.10;1.00
20182;DHT22;10250;50.756;6.172;2023-06-26T10:49:31;23.10;1.00
20182;DHT22;10250;50.756;6.172;2023-06-26T10:51:32;23.10;1.00
20182;DHT22;10250;50.756;6.172;2023-06-26T10:53:33;23.00;1.00
20182;DHT22;10250;50.756;6.172;2023-06-26T10:55:37;22.70;1.00
20182;DHT22;10250;50.756;6.172;2023-06-26T10:57:37;22.60;1.00
20182;DHT22;10250;50.756;6.172;2023-06-26T10:59:39;22.50;1.00
20182;DHT22;10250;50.756;6.172;2023-06-26T11:01:42;22.40;1.00
20182;DHT22;10250;50.756;6.172;2023-06-26T11:06:08;22.70;1.00
20182;DHT22;10250;50.756;6.172;2023-06-26T11:08:10;22.80;1.00
20182;DHT22;10250;50.756;6.172;2023-06-26T11:10:11;22.70;1.00
20182;DHT22;10250;50.756;6.172;2023-06-26T11:12:12;22.50;1.00
20182;DHT22;10250;50.756;6.172;2023-06-26T11:14:13;22.20;1.00
20182;DHT22;10250;50.756;6.172;2023-06-26T11:16:16;22.20;1.00
20182;DHT22;10250;50.756;6.172;2023-06-26T11:18:16;22.40;1.00
20182;DHT22;10250;50.756;6.172;2023-06-26T11:20:17;22.60;1.00
20182;DHT22;10250;50.756;6.172;2023-06-26T11:22:19;22.60;1.00
20182;DHT22;10250;50.756;6.172;2023-06-26T11:24:20;22.60;1.00
20182;DHT22;10250;50.756;6.172;2023-06-26T11:26:21;22.60;1.00
20182;DHT22;10250;50.756;6.172;2023-06-26T11:28:22;22.70;1.00
20182;DHT22;10250;50.756;6.172;2023-06-26T11:30:24;22.80;1.00
20182;DHT22;10250;50.756;6.172;2023-06-26T11:32:26;22.90;1.00
20182;DHT22;10250;50.756;6.172;2023-06-26T11:34:30;23.00;1.00
20182;DHT22;10250;50.756;6.172;2023-06-26T11:36:31;22.90;1.00
20182;DHT22;10250;50.756;6.172;2023-06-26T11:38:37;22.80;1.00
20182;DHT22;10250;50.756;6.172;2023-06-26T11:40:38;22.80;1.00
20182;DHT22;10250;50.756;6.172;2023-06-26T11:42:39;22.80;1.00
20182;DHT22;10250;50.756;6.172;2023-06-26T11:44:41;22.80;1.00
20182;DHT22;10250;50.756;6.172;2023-06-26T11:46:43;22.90;1.00
20182;DHT22;10250;50.756;6.172;2023-06-26T11:48:44;23.00;1.00
20182;DHT22;10250;50.756;6.172;2023-06-26T11:54:57;23.10;1.00
20182;DHT22;10250;50.756;6.172;2023-06-26T11:56:59;23.00;1.00
20182;DHT22;10250;50.756;6.172;2023-06-26T11:59:06;22.90;1.00
20182;DHT22;10250;50.756;6.172;2023-06-26T12:01:06;23.00;1.00
20182;DHT22;10250;50.756;6.172;2023-06-26T12:03:07;23.10;1.00
20182;DHT22;10250;50.756;6.172;2023-06-26T12:05:08;23.20;1.00
20182;DHT22;10250;50.756;6.172;2023-06-26T12:07:09;23.30;1.00
20182;DHT22;10250;50.756;6.172;2023-06-26T12:09:11;23.40;1.00
20182;DHT22;10250;50.756;6.172;2023-06-26T12:11:13;23.30;1.00
20182;DHT22;10250;50.756;6.172;2023-06-26T12:13:14;23.50;1.00
20182;DHT22;10250;50.756;6.172;2023-06-26T12:15:15;23.70;1.00
20182;DHT22;10250;50.756;6.172;2023-06-26T12:17:16;23.70;1.00
20182;DHT22;10250;50.756;6.172;2023-06-26T12:19:17;23.70;1.00
20182;DHT22;10250;50.756;6.172;2023-06-26T12:23:40;23.70;1.00
20182;DHT22;10250;50.756;6.172;2023-06-26T12:25:40;23.70;1.00
20182;DHT22;10250;50.756;6.172;2023-06-26T12:27:41;23.70;1.00
20182;DHT22;10250;50.756;6.172;2023-06-26T12:29:54;23.40;1.00
20182;DHT22;10250;50.756;6.172;2023-06-26T12:31:55;23.40;1.00
20182;DHT22;10250;50.756;6.172;2023-06-26T12:33:55;23.30;1.00
20182;DHT22;10250;50.756;6.172;2023-06-26T12:35:56;23.20;1.00
20182;DHT22;10250;50.756;6.172;2023-06-26T12:37:57;23.00;1.00
20182;DHT22;10250;50.756;6.172;2023-06-26T12:39:58;22.90;1.00
20182;DHT22;10250;50.756;6.172;2023-06-26T12:42:00;22.90;1.00
20182;DHT22;10250;50.756;6.172;2023-06-26T12:44:01;23.00;1.00
20182;DHT22;10250;50.756;6.172;2023-06-26T12:46:02;22.80;1.00
20182;DHT22;10250;50.756;6.172;2023-06-26T12:48:12;22.90;1.00
20182;DHT22;10250;50.756;6.172;2023-06-26T12:50:12;23.10;1.00
20182;DHT22;10250;50.756;6.172;2023-06-26T12:52:14;23.20;1.00
20182;DHT22;10250;50.756;6.172;2023-06-26T12:54:15;23.20;1.00
20182;DHT22;10250;50.756;6.172;2023-06-26T12:56:15;23.10;1.00
20182;DHT22;10250;50.756;6.172;2023-06-26T12:58:16;23.10;1.00
20182;DHT22;10250;50.756;6.172;2023-06-26T13:00:18;23.10;1.00
20182;DHT22;10250;50.756;6.172;2023-06-26T13:02:19;23.10;1.00
20182;DHT22;10250;50.756;6.172;2023-06-26T13:04:19;23.20;1.00
20182;DHT22;10250;50.756;6.172;2023-06-26T13:06:20;23.10;1.00
20182;DHT22;10250;50.756;6.172;2023-06-26T13:08:21;22.90;1.00
20182;DHT22;10250;50.756;6.172;2023-06-26T13:10:21;22.90;1.00
20182;DHT22;10250;50.756;6.172;2023-06-26T13:12:27;22.80;1.00